Time;durP1;ratioP1;P1;durP2;ratioP2;P2;SDS_P1;SDS_P2;PMS_P1;PMS_P2;Temp;Humidity;BMP_temperature;BMP_pressure;BME280_temperature;BME280_humidity;BME280_pressure;Samples;Min_cycle;Max_cycle;Signal;HPM_P1;HPM_P2
2022/12/30 00:01:21;;;;;;;4.27;1.80;;;;;;;8.02;77.61;100191.53;5041933;28;20213;-82
2022/12/30 00:03:48;;;;;;;12.63;2.17;;;;;;;8.02;77.55;100205.38;5040713;28;20214;-82
2022/12/30 00:06:16;;;;;;;5.27;2.37;;;;;;;7.95;76.90;100216.72;5040004;28;20205;-81
2022/12/30 00:08:46;;;;;;;7.93;2.07;;;;;;;7.97;77.25;100212.38;5039807;28;20240;-82
2022/12/30 00:11:13;;;;;;;6.00;1.77;;;;;;;8.06;77.60;100209.66;5039344;28;20678;-81
2022/12/30 00:33:09;;;;;;;8.53;3.03;;;;;;;7.83;77.82;100250.63;5040601;28;20228;-80
2022/12/30 00:35:38;;;;;;;9.03;2.83;;;;;;;7.86;78.04;100232.41;5040347;28;20205;-83
2022/12/30 00:38:04;;;;;;;4.93;2.30;;;;;;;7.87;77.01;100253.19;5040555;28;20226;-82
2022/12/30 00:40:30;;;;;;;5.27;2.30;;;;;;;7.82;76.46;100262.78;5040586;28;20209;-81
2022/12/30 00:43:08;;;;;;;7.20;2.33;;;;;;;7.76;77.53;100257.63;5040096;28;20274;-82
2022/12/30 00:45:36;;;;;;;7.23;2.53;;;;;;;7.79;77.32;100252.44;5040359;28;20308;-80
2022/12/30 00:56:17;;;;;;;6.20;2.53;;;;;;;7.69;75.66;100321.81;5028700;28;20211;-82
2022/12/30 00:58:43;;;;;;;5.17;2.10;;;;;;;7.72;76.25;100323.50;5028321;28;20759;-82
2022/12/30 01:01:10;;;;;;;7.13;2.20;;;;;;;7.75;76.27;100318.28;5028933;28;20263;-81
2022/12/30 01:03:37;;;;;;;5.37;2.60;;;;;;;7.77;75.50;100313.94;5028694;28;20225;-81
2022/12/30 01:06:08;;;;;;;4.97;2.30;;;;;;;7.75;76.20;100331.28;5032488;28;20666;-83
2022/12/30 01:08:34;;;;;;;5.47;2.80;;;;;;;7.70;76.16;100333.06;5028467;28;20281;-82
2022/12/30 01:11:06;;;;;;;5.67;2.30;;;;;;;7.77;77.04;100329.53;5029399;28;20227;-82
2022/12/30 01:13:32;;;;;;;5.87;2.30;;;;;;;7.73;76.32;100325.22;5029633;28;20215;-82
2022/12/30 01:15:58;;;;;;;4.67;2.00;;;;;;;7.77;76.39;100332.13;5030115;28;20231;-82
2022/12/30 01:18:25;;;;;;;4.37;2.33;;;;;;;7.69;75.66;100339.09;5029073;28;20222;-83
2022/12/30 01:20:53;;;;;;;10.37;2.37;;;;;;;7.72;75.79;100357.28;5028965;28;20236;-83
2022/12/30 01:23:19;;;;;;;4.13;2.10;;;;;;;7.70;74.90;100374.63;5029841;28;20197;-82
2022/12/30 01:25:45;;;;;;;4.73;2.33;;;;;;;7.66;75.05;100384.16;5028323;28;20207;-83
2022/12/30 01:28:12;;;;;;;8.07;2.00;;;;;;;7.80;75.40;100388.41;5029246;28;20225;-83
2022/12/30 01:30:38;;;;;;;5.20;2.40;;;;;;;7.79;75.40;100384.94;5030496;28;20227;-80
2022/12/30 01:33:04;;;;;;;5.70;1.93;;;;;;;7.79;74.43;100399.66;5028351;28;20766;-82
2022/12/30 01:35:33;;;;;;;3.53;1.87;;;;;;;7.69;74.45;100436.13;5029879;28;20199;-81
2022/12/30 01:38:00;;;;;;;7.37;2.53;;;;;;;7.76;74.69;100434.31;5029460;28;20221;-82
2022/12/30 01:40:27;;;;;;;6.43;2.17;;;;;;;7.64;74.25;100440.47;5030404;28;20235;-81
2022/12/30 01:42:53;;;;;;;7.10;2.67;;;;;;;7.68;74.79;100446.50;5030303;28;20195;-83
2022/12/30 01:45:22;;;;;;;7.53;2.47;;;;;;;7.68;75.08;100441.31;5028198;28;20201;-82
2022/12/30 01:47:53;;;;;;;6.47;2.60;;;;;;;7.73;74.64;100465.50;5029899;28;20225;-80
2022/12/30 01:50:27;;;;;;;10.77;2.43;;;;;;;7.67;75.18;100453.44;5022723;28;20211;-81
2022/12/30 01:53:00;;;;;;;5.43;2.47;;;;;;;7.67;75.88;100440.47;5020939;28;20229;-80
2022/12/30 01:55:33;;;;;;;13.93;2.97;;;;;;;7.74;75.29;100428.28;5020256;28;20220;-80
2022/12/30 01:58:03;;;;;;;8.77;2.70;;;;;;;7.69;75.01;100432.63;5019675;28;20716;-82
2022/12/30 02:00:30;;;;;;;6.30;2.00;;;;;;;7.72;75.22;100415.28;5019903;28;20275;-82
2022/12/30 02:02:59;;;;;;;4.70;2.33;;;;;;;7.63;75.39;100417.09;5021022;28;20676;-82
2022/12/30 02:05:30;;;;;;;9.10;2.67;;;;;;;7.62;75.69;100429.22;5021126;28;20213;-83
2022/12/30 02:08:05;;;;;;;5.80;2.80;;;;;;;7.70;75.93;100418.78;5021051;28;20237;-83
2022/12/30 02:10:34;;;;;;;7.43;2.80;;;;;;;7.76;75.83;100414.38;5021266;28;20213;-82
2022/12/30 02:13:00;;;;;;;8.43;2.40;;;;;;;7.63;75.26;100412.78;5020633;28;20242;-80
2022/12/30 02:15:35;;;;;;;6.83;2.50;;;;;;;7.67;75.29;100411.00;5020166;28;20620;-84
2022/12/30 02:18:11;;;;;;;6.80;2.80;;;;;;;7.70;75.34;100409.25;5019940;28;20288;-83
2022/12/30 02:21:12;;;;;;;5.60;2.57;;;;;;;7.78;75.23;100413.53;5021156;28;20232;-82
2022/12/30 02:24:06;;;;;;;8.33;2.67;;;;;;;7.70;75.56;100416.19;5020973;28;20668;-82
2022/12/30 02:26:57;;;;;;;7.90;2.73;;;;;;;7.70;75.45;100409.25;5021607;28;20257;-81
2022/12/30 02:29:55;;;;;;;4.57;2.30;;;;;;;7.51;75.54;100405.06;5021351;28;20288;-83
2022/12/30 02:32:27;;;;;;;8.87;2.60;;;;;;;7.63;75.75;100409.28;5024875;28;20237;-81
2022/12/30 02:34:59;;;;;;;5.80;2.43;;;;;;;7.66;75.67;100419.69;5023998;28;20206;-81
2022/12/30 02:37:35;;;;;;;6.20;2.73;;;;;;;7.68;75.32;100405.78;5024146;28;20229;-84
2022/12/30 02:40:08;;;;;;;7.77;3.30;;;;;;;7.63;75.21;100419.69;5025330;28;20210;-83
2022/12/30 02:45:31;;;;;;;5.60;2.30;;;;;;;7.61;75.53;100406.75;5025106;28;20268;-82
2022/12/30 02:48:03;;;;;;;4.97;2.30;;;;;;;7.64;76.14;100398.91;5024439;28;20653;-82
2022/12/30 02:53:23;;;;;;;5.83;2.40;;;;;;;7.72;76.38;100384.13;5024679;28;20276;-82
2022/12/30 02:55:51;;;;;;;8.40;3.30;;;;;;;7.73;75.96;100383.25;5025426;28;20379;-83
2022/12/30 02:58:17;;;;;;;6.90;2.47;;;;;;;7.66;76.29;100381.56;5024229;28;20231;-81
2022/12/30 03:03:58;;;;;;;6.73;3.20;;;;;;;7.51;76.77;100374.78;5023023;28;20233;-82
2022/12/30 03:06:47;;;;;;;6.67;2.13;;;;;;;7.45;76.90;100368.75;5022608;28;20210;-79
2022/12/30 03:09:23;;;;;;;7.33;2.73;;;;;;;7.52;76.38;100373.88;5022525;28;20229;-83
2022/12/30 03:11:57;;;;;;;5.33;2.63;;;;;;;7.47;76.52;100378.25;5019701;28;20256;-81
2022/12/30 03:14:29;;;;;;;7.30;3.07;;;;;;;7.38;77.15;100383.50;5020290;28;20226;-81
2022/12/30 03:17:02;;;;;;;7.50;2.70;;;;;;;7.48;77.47;100377.38;5020082;28;20272;-83
2022/12/30 03:19:35;;;;;;;6.97;2.50;;;;;;;7.41;77.03;100373.09;5020526;28;20264;-83
2022/12/30 03:22:02;;;;;;;6.60;2.83;;;;;;;7.38;76.32;100385.25;5020135;28;20211;-83
2022/12/30 03:27:22;;;;;;;5.60;2.43;;;;;;;7.39;75.99;100398.19;5020265;28;20728;-82
2022/12/30 03:29:52;;;;;;;9.13;2.53;;;;;;;7.39;76.07;100402.53;5019934;28;20249;-83
2022/12/30 03:32:19;;;;;;;7.90;2.70;;;;;;;7.38;75.78;100404.28;5020141;28;20210;-84
2022/12/30 03:34:48;;;;;;;6.37;2.77;;;;;;;7.36;75.82;100403.44;5019543;28;20227;-81
2022/12/30 03:37:19;;;;;;;4.87;2.73;;;;;;;7.27;76.23;100421.66;5019598;28;20720;-81
2022/12/30 03:39:52;;;;;;;6.63;2.60;;;;;;;7.30;76.70;100416.47;5019387;28;20214;-80
2022/12/30 03:42:20;;;;;;;5.67;2.40;;;;;;;7.30;76.52;100409.53;5018224;28;20206;-80
2022/12/30 03:44:48;;;;;;;6.47;2.30;;;;;;;7.33;76.47;100414.72;5019102;28;20253;-80
2022/12/30 03:47:15;;;;;;;8.07;2.53;;;;;;;7.33;76.64;100412.13;5020212;28;20278;-83
2022/12/30 03:49:42;;;;;;;7.47;2.67;;;;;;;7.42;76.37;100418.97;5019154;28;20218;-81
2022/12/30 03:52:10;;;;;;;7.57;3.23;;;;;;;7.35;75.96;100443.25;5019347;28;20755;-80
2022/12/30 03:54:37;;;;;;;7.67;2.33;;;;;;;7.26;75.93;100449.34;5019257;28;20227;-80
2022/12/30 03:57:03;;;;;;;7.83;3.13;;;;;;;7.32;76.24;100440.69;5018673;28;20736;-82
2022/12/30 03:59:29;;;;;;;4.90;2.20;;;;;;;7.43;76.77;100432.81;5018279;28;20272;-80
2022/12/30 04:01:56;;;;;;;6.17;2.40;;;;;;;7.33;76.45;100438.09;5018591;28;20556;-80
2022/12/30 04:04:22;;;;;;;7.97;3.23;;;;;;;7.41;77.21;100427.63;5018119;28;20260;-83
2022/12/30 04:06:49;;;;;;;10.40;2.50;;;;;;;7.41;76.83;100413.78;5017856;28;20210;-80
2022/12/30 04:09:16;;;;;;;7.47;2.30;;;;;;;7.25;76.43;100418.22;5018306;28;20238;-81
2022/12/30 04:11:43;;;;;;;4.57;2.20;;;;;;;7.36;76.08;100417.28;5018556;28;20206;-83
2022/12/30 04:14:10;;;;;;;4.93;2.13;;;;;;;7.30;77.02;100419.91;5018333;28;20229;-82
2022/12/30 04:16:36;;;;;;;6.27;2.37;;;;;;;7.32;76.57;100415.56;5017813;28;20260;-80
2022/12/30 04:19:03;;;;;;;8.53;2.30;;;;;;;7.29;76.82;100407.78;5018216;28;20723;-81
2022/12/30 04:21:30;;;;;;;7.50;2.63;;;;;;;7.24;77.09;100409.56;5018527;28;20283;-83
2022/12/30 04:23:56;;;;;;;8.80;2.57;;;;;;;7.31;77.85;100408.66;5018092;28;20261;-80
2022/12/30 04:26:24;;;;;;;9.13;2.27;;;;;;;7.31;77.91;100390.50;5017904;28;20232;-80
2022/12/30 04:28:50;;;;;;;7.93;2.40;;;;;;;7.35;78.20;100391.31;5017516;28;20646;-82
2022/12/30 04:31:16;;;;;;;11.50;2.47;;;;;;;7.30;77.89;100391.34;5017676;28;20264;-82
2022/12/30 04:33:43;;;;;;;6.53;2.27;;;;;;;7.27;78.06;100390.50;5017605;28;20369;-81
2022/12/30 04:36:09;;;;;;;6.30;2.70;;;;;;;7.26;78.43;100388.78;5017706;28;20260;-83
2022/12/30 04:38:36;;;;;;;6.93;2.67;;;;;;;7.40;77.83;100383.50;5017384;28;20229;-81
2022/12/30 04:41:02;;;;;;;7.90;2.17;;;;;;;7.36;77.87;100399.09;5017575;28;20268;-80
2022/12/30 04:43:30;;;;;;;6.90;2.30;;;;;;;7.24;78.31;100404.38;5017702;28;20210;-83
2022/12/30 04:45:56;;;;;;;7.80;2.30;;;;;;;7.05;78.10;100401.00;5017824;28;20207;-83
2022/12/30 04:48:23;;;;;;;9.70;2.63;;;;;;;7.08;79.44;100375.03;5017207;28;20236;-81
2022/12/30 04:50:49;;;;;;;4.33;2.10;;;;;;;7.04;79.73;100362.09;5017222;28;20215;-81
2022/12/30 04:53:16;;;;;;;6.80;2.43;;;;;;;6.96;80.41;100341.38;5017138;28;20208;-83
2022/12/30 04:55:42;;;;;;;8.33;2.93;;;;;;;6.93;80.27;100339.66;5017530;28;20253;-81
2022/12/30 04:58:10;;;;;;;5.37;2.27;;;;;;;6.96;79.79;100339.63;5017497;28;20639;-81
2022/12/30 05:00:38;;;;;;;5.77;2.40;;;;;;;7.04;80.13;100331.81;5016827;28;20560;-84
2022/12/30 05:03:04;;;;;;;14.03;2.50;;;;;;;7.06;79.64;100339.59;5016501;28;20209;-83
2022/12/30 05:05:31;;;;;;;8.57;2.60;;;;;;;7.06;80.10;100334.41;5017180;28;20215;-82
2022/12/30 05:07:57;;;;;;;7.50;3.07;;;;;;;7.08;80.49;100340.44;5016694;28;20244;-81
2022/12/30 05:10:24;;;;;;;9.47;2.53;;;;;;;6.93;80.27;100331.84;5016313;28;20693;-81
2022/12/30 05:12:50;;;;;;;7.07;2.43;;;;;;;6.96;80.48;100333.59;5016799;28;20213;-80
2022/12/30 05:15:16;;;;;;;6.90;1.80;;;;;;;6.97;80.73;100327.53;5016338;28;20230;-80
2022/12/30 05:17:44;;;;;;;7.53;1.90;;;;;;;6.95;81.21;100330.13;5016579;28;20259;-83
2022/12/30 05:20:11;;;;;;;7.90;2.63;;;;;;;7.01;81.06;100333.56;5018014;28;20203;-84
2022/12/30 05:22:37;;;;;;;5.47;2.37;;;;;;;7.08;81.41;100340.44;5017719;28;20210;-82
2022/12/30 05:27:48;;;;;;;6.67;1.90;;;;;;;7.09;81.22;100348.19;5017947;28;20590;-83
2022/12/30 05:30:15;;;;;;;7.80;2.50;;;;;;;7.11;80.65;100343.88;5044258;23;20230;-83
2022/12/30 05:32:41;;;;;;;5.60;1.90;;;;;;;7.10;81.11;100334.38;5062779;28;20232;-82
2022/12/30 05:35:09;;;;;;;8.03;2.03;;;;;;;7.05;81.07;100325.75;5063861;28;20630;-82
2022/12/30 05:37:36;;;;;;;4.07;1.67;;;;;;;7.13;81.20;100323.94;5065182;28;20240;-82
2022/12/30 05:40:03;;;;;;;12.20;2.60;;;;;;;7.05;81.67;100323.13;5064409;28;20209;-82
2022/12/30 05:42:29;;;;;;;5.90;2.93;;;;;;;7.03;81.72;100316.25;5062696;28;20615;-78
2022/12/30 05:44:56;;;;;;;7.00;2.27;;;;;;;7.14;81.45;100309.25;5061575;28;20208;-82
2022/12/30 05:47:22;;;;;;;10.17;2.33;;;;;;;7.11;81.93;100317.06;5061131;28;20286;-83
2022/12/30 05:49:49;;;;;;;13.50;2.67;;;;;;;7.19;81.86;100327.38;5061082;28;20206;-81
2022/12/30 05:52:17;;;;;;;7.30;1.97;;;;;;;7.27;81.89;100329.03;5061209;28;20213;-80
2022/12/30 05:54:44;;;;;;;11.77;2.87;;;;;;;7.23;80.61;100329.94;5060613;28;20630;-82
2022/12/30 05:57:10;;;;;;;5.43;2.07;;;;;;;7.29;81.35;100326.44;5060232;28;20270;-82
2022/12/30 05:59:37;;;;;;;7.87;2.10;;;;;;;7.26;81.22;100335.13;5061205;28;20387;-82
2022/12/30 06:02:03;;;;;;;5.83;2.00;;;;;;;7.23;81.02;100342.06;5060836;28;20208;-82
2022/12/30 06:04:30;;;;;;;8.43;2.10;;;;;;;7.24;81.14;100354.19;5060990;28;20205;-82
2022/12/30 06:06:56;;;;;;;5.47;2.27;;;;;;;7.20;80.22;100366.31;5060907;28;20240;-81
2022/12/30 06:09:24;;;;;;;6.40;2.10;;;;;;;7.23;80.31;100370.63;5061410;28;20208;-82
2022/12/30 06:11:50;;;;;;;8.03;2.70;;;;;;;7.18;80.77;100370.66;5060787;28;20208;-81
2022/12/30 06:14:17;;;;;;;7.43;2.47;;;;;;;7.13;81.02;100373.25;5061180;28;20630;-81
2022/12/30 06:16:43;;;;;;;6.70;2.60;;;;;;;7.00;81.51;100365.56;5061372;28;20205;-80
2022/12/30 06:19:10;;;;;;;7.27;2.00;;;;;;;6.87;81.96;100347.47;5060209;28;20228;-81
2022/12/30 06:21:37;;;;;;;10.53;1.90;;;;;;;6.78;82.06;100342.34;5060376;28;20204;-82
2022/12/30 06:24:04;;;;;;;8.40;2.30;;;;;;;6.78;82.04;100333.69;5061587;28;20253;-82
2022/12/30 06:26:31;;;;;;;5.10;2.13;;;;;;;6.81;81.45;100339.72;5061028;28;20254;-81
2022/12/30 06:28:58;;;;;;;3.87;1.87;;;;;;;6.80;81.89;100331.94;5060131;28;20351;-81
2022/12/30 06:31:24;;;;;;;7.07;1.83;;;;;;;6.74;82.15;100336.31;5061148;28;20210;-81
2022/12/30 06:33:51;;;;;;;6.53;1.97;;;;;;;6.83;82.54;100339.72;5061905;28;20221;-81
2022/12/30 06:36:17;;;;;;;6.43;1.67;;;;;;;6.75;82.26;100339.75;5062178;28;20213;-80
2022/12/30 06:38:43;;;;;;;5.83;1.37;;;;;;;6.74;82.55;100320.75;5061441;28;20229;-80
2022/12/30 06:41:10;;;;;;;6.70;1.23;;;;;;;6.72;82.16;100316.44;5061694;28;20350;-81
2022/12/30 06:43:38;;;;;;;4.87;1.80;;;;;;;6.72;82.65;100311.25;5059935;28;20243;-81
2022/12/30 06:46:04;;;;;;;6.60;1.47;;;;;;;6.84;82.48;100306.00;5059703;28;20263;-80
2022/12/30 06:48:31;;;;;;;9.63;2.03;;;;;;;6.73;82.05;100328.53;5059649;28;20290;-80
2022/12/30 06:50:59;;;;;;;7.83;1.80;;;;;;;6.70;80.94;100332.00;5058482;28;20213;-81
2022/12/30 06:53:26;;;;;;;7.07;2.00;;;;;;;6.83;81.04;100339.72;5058947;28;20213;-81
2022/12/30 06:55:52;;;;;;;4.77;1.47;;;;;;;6.74;80.95;100354.47;5059050;28;20233;-80
2022/12/30 06:58:19;;;;;;;7.27;1.87;;;;;;;6.84;80.96;100359.59;5058771;28;20229;-81
2022/12/30 07:00:46;;;;;;;4.23;1.40;;;;;;;6.92;79.96;100373.41;5058397;28;20685;-80
2022/12/30 07:03:13;;;;;;;7.00;1.70;;;;;;;6.91;79.77;100385.50;5058447;28;20208;-81
2022/12/30 07:05:40;;;;;;;8.80;1.90;;;;;;;6.92;79.70;100400.22;5058933;28;20279;-81
2022/12/30 07:08:06;;;;;;;8.27;1.63;;;;;;;6.94;79.31;100421.81;5058545;28;20286;-82
2022/12/30 07:10:33;;;;;;;6.77;1.40;;;;;;;6.89;79.75;100433.09;5061681;28;20231;-81
2022/12/30 07:12:59;;;;;;;4.47;2.13;;;;;;;6.93;79.65;100438.25;5059857;28;20719;-82
2022/12/30 07:15:26;;;;;;;3.00;1.33;;;;;;;6.91;79.22;100441.72;5050867;28;20222;-81
2022/12/30 07:17:53;;;;;;;6.73;1.70;;;;;;;6.82;79.75;100446.94;5055607;28;20714;-82
2022/12/30 07:20:20;;;;;;;7.10;1.57;;;;;;;6.87;79.43;100432.22;5052083;28;20201;-81
2022/12/30 07:22:46;;;;;;;4.47;1.30;;;;;;;6.89;78.95;100438.28;5050209;28;20216;-77
2022/12/30 07:25:13;;;;;;;6.53;1.63;;;;;;;6.81;79.49;100456.47;5044827;28;20722;-77
2022/12/30 07:27:39;;;;;;;6.03;1.70;;;;;;;6.74;79.30;100454.78;5044905;28;20225;-76
2022/12/30 07:30:06;;;;;;;5.30;1.20;;;;;;;6.69;80.00;100459.97;5043051;28;20623;-77
2022/12/30 07:32:33;;;;;;;3.83;1.47;;;;;;;6.65;80.21;100442.69;5044512;28;20193;-76
2022/12/30 07:35:02;;;;;;;13.83;2.17;;;;;;;6.66;79.77;100438.34;5044658;28;20214;-77
2022/12/30 07:37:28;;;;;;;13.10;1.80;;;;;;;6.67;79.52;100437.50;5043532;28;20225;-75
2022/12/30 07:39:55;;;;;;;7.13;1.40;;;;;;;6.63;79.28;100448.75;5043083;28;20225;-76
2022/12/30 07:42:21;;;;;;;7.93;1.40;;;;;;;6.63;80.37;100448.75;5046296;28;20601;-76
2022/12/30 07:44:48;;;;;;;5.27;1.60;;;;;;;6.65;79.49;100458.25;5042396;28;20256;-77
2022/12/30 07:47:14;;;;;;;3.63;1.30;;;;;;;6.74;79.27;100462.56;5040144;28;20229;-76
2022/12/30 07:49:41;;;;;;;4.63;1.37;;;;;;;6.80;79.51;100459.94;5043786;28;20201;-77
2022/12/30 07:52:08;;;;;;;5.60;2.07;;;;;;;6.67;80.22;100459.09;5044717;28;20206;-76
2022/12/30 07:54:35;;;;;;;5.17;1.97;;;;;;;6.64;78.80;100456.53;5042968;28;20226;-76
2022/12/30 07:57:01;;;;;;;15.90;2.87;;;;;;;6.59;78.30;100481.59;5043820;28;20724;-76
2022/12/30 07:59:27;;;;;;;4.47;1.60;;;;;;;6.70;78.54;100502.31;5045118;28;20202;-76
2022/12/30 08:01:54;;;;;;;4.37;2.30;;;;;;;6.57;78.39;100507.53;5042334;28;20607;-77
2022/12/30 08:04:20;;;;;;;5.57;1.30;;;;;;;6.72;77.95;100511.84;5044635;28;20197;-76
2022/12/30 08:06:47;;;;;;;4.67;1.70;;;;;;;6.76;76.98;100529.13;5045225;28;20690;-77
2022/12/30 08:09:15;;;;;;;9.00;2.23;;;;;;;6.88;77.54;100519.59;5042638;28;20218;-76
2022/12/30 08:11:41;;;;;;;5.83;1.57;;;;;;;6.81;77.92;100528.25;5043494;28;20205;-75
2022/12/30 08:14:07;;;;;;;5.73;1.20;;;;;;;6.80;77.61;100537.78;5044332;28;20198;-75
2022/12/30 08:16:34;;;;;;;5.90;2.03;;;;;;;6.81;77.92;100523.91;5042656;28;20248;-75
2022/12/30 08:19:00;;;;;;;2.90;1.10;;;;;;;6.80;76.51;100547.25;5043698;28;20217;-75
2022/12/30 08:21:26;;;;;;;4.23;1.63;;;;;;;6.69;77.55;100544.69;5041887;28;20255;-75
2022/12/30 08:23:54;;;;;;;5.30;1.30;;;;;;;6.77;77.49;100550.75;5044118;28;20673;-75
2022/12/30 08:26:23;;;;;;;6.10;1.33;;;;;;;6.81;77.24;100542.09;5043095;28;20202;-77
2022/12/30 08:28:50;;;;;;;7.47;1.27;;;;;;;6.72;77.12;100544.72;5041552;28;20229;-77
2022/12/30 08:31:20;;;;;;;3.67;0.97;;;;;;;6.79;78.01;100537.78;5043656;28;20205;-77
2022/12/30 08:33:46;;;;;;;4.93;1.27;;;;;;;6.67;77.48;100526.53;5047526;28;20578;-78
2022/12/30 08:36:15;;;;;;;4.57;1.03;;;;;;;6.71;77.87;100528.25;5045496;28;20218;-77
2022/12/30 08:38:46;;;;;;;4.63;1.10;;;;;;;6.65;77.80;100530.00;5043119;28;21439;-74
2022/12/30 08:41:15;;;;;;;5.00;1.50;;;;;;;6.58;77.77;100526.56;5044056;28;20201;-75
2022/12/30 08:43:43;;;;;;;3.63;1.23;;;;;;;6.54;78.12;100524.81;5042917;28;20245;-75
2022/12/30 08:46:10;;;;;;;4.20;1.53;;;;;;;6.38;78.64;100511.00;5042307;28;20213;-75
2022/12/30 08:48:36;;;;;;;4.80;1.47;;;;;;;6.51;79.42;100493.72;5041740;28;20260;-74
2022/12/30 08:51:04;;;;;;;5.73;1.37;;;;;;;6.58;78.56;100474.69;5036038;28;20205;-74
2022/12/30 08:53:30;;;;;;;6.57;1.70;;;;;;;6.74;81.19;100454.78;5033214;28;20271;-75
2022/12/30 08:56:02;;;;;;;3.60;1.40;;;;;;;6.65;79.03;100447.88;5033185;28;20284;-74
2022/12/30 08:58:29;;;;;;;4.83;1.60;;;;;;;6.77;81.35;100410.66;5032975;28;20722;-74
2022/12/30 09:00:57;;;;;;;4.03;1.30;;;;;;;6.98;83.88;100337.03;5032694;28;20629;-75
2022/12/30 09:03:23;;;;;;;4.87;1.60;;;;;;;7.04;83.23;100328.38;5032860;28;20210;-74
2022/12/30 09:05:52;;;;;;;7.33;2.77;;;;;;;7.10;89.02;100273.81;5033098;28;20206;-75
2022/12/30 09:08:19;;;;;;;6.13;1.53;;;;;;;7.08;84.12;100187.31;5032967;28;20229;-74
2022/12/30 09:10:45;;;;;;;7.00;1.40;;;;;;;6.94;80.85;100301.59;5035052;28;20235;-74
2022/12/30 09:13:11;;;;;;;7.47;1.70;;;;;;;7.13;84.43;100294.53;5052792;28;20262;-75
2022/12/30 09:15:38;;;;;;;5.33;1.57;;;;;;;7.10;82.14;100333.50;5051728;28;20236;-75
2022/12/30 09:18:06;;;;;;;4.47;1.73;;;;;;;7.17;82.86;100345.56;5052150;28;20240;-74
2022/12/30 09:20:32;;;;;;;5.03;1.77;;;;;;;7.39;84.94;100322.03;5052433;28;20205;-74
2022/12/30 09:22:59;;;;;;;4.37;1.13;;;;;;;7.34;81.42;100350.66;5052698;28;20262;-74
2022/12/30 09:25:25;;;;;;;7.90;1.73;;;;;;;7.50;80.77;100335.81;5052513;28;20198;-75
2022/12/30 09:27:51;;;;;;;4.87;2.00;;;;;;;7.34;79.77;100410.38;5052548;28;20224;-75
2022/12/30 09:30:18;;;;;;;4.50;2.00;;;;;;;7.49;79.84;100410.28;5052129;28;20262;-75
2022/12/30 09:32:44;;;;;;;5.63;1.77;;;;;;;7.61;79.68;100398.06;5052446;28;20254;-75
2022/12/30 09:35:12;;;;;;;4.87;1.33;;;;;;;7.73;78.12;100432.63;5046546;28;20222;-75
2022/12/30 09:37:38;;;;;;;9.57;1.67;;;;;;;7.75;77.34;100469.84;5041038;28;20779;-75
2022/12/30 09:40:06;;;;;;;3.40;1.20;;;;;;;7.69;78.01;100495.88;5040079;28;20284;-75
2022/12/30 09:45:26;;;;;;;4.43;1.43;;;;;;;7.86;77.54;100497.50;5032300;28;20276;-75
2022/12/30 09:47:55;;;;;;;8.00;2.07;;;;;;;7.82;76.46;100534.75;5032051;28;20709;-74
2022/12/30 09:50:33;;;;;;;6.27;1.60;;;;;;;8.01;77.68;100487.00;5032092;28;20201;-75
2022/12/30 09:53:07;;;;;;;7.20;1.77;;;;;;;7.87;77.92;100533.88;5031942;28;20618;-75
2022/12/30 09:55:38;;;;;;;4.67;1.83;;;;;;;7.98;77.20;100510.38;5031981;28;20249;-75
2022/12/30 09:58:12;;;;;;;4.10;1.40;;;;;;;7.67;74.75;100567.75;5032214;28;20229;-75
2022/12/30 10:00:39;;;;;;;6.53;1.43;;;;;;;7.83;75.10;100562.47;5032079;28;20212;-75
2022/12/30 10:03:08;;;;;;;6.03;1.40;;;;;;;8.09;79.16;100512.94;5031972;28;20589;-74
2022/12/30 10:05:56;;;;;;;4.13;1.80;;;;;;;8.32;79.44;100461.59;5032170;28;20225;-74
2022/12/30 10:08:35;;;;;;;5.03;1.60;;;;;;;8.01;75.54;100538.09;5032017;28;20315;-74
2022/12/30 10:11:13;;;;;;;3.93;1.40;;;;;;;8.02;74.16;100552.81;5031900;28;20210;-74
2022/12/30 10:13:45;;;;;;;4.23;1.50;;;;;;;7.94;75.01;100582.31;5033402;28;20296;-74
2022/12/30 10:16:18;;;;;;;2.70;1.07;;;;;;;8.10;74.77;100582.22;5051601;28;20771;-74
2022/12/30 10:19:08;;;;;;;5.77;1.37;;;;;;;8.25;76.41;100574.34;5051966;28;20233;-74
2022/12/30 10:21:48;;;;;;;4.83;1.47;;;;;;;8.29;75.06;100565.63;5051383;28;20552;-74
2022/12/30 10:24:40;;;;;;;4.70;1.53;;;;;;;8.52;75.50;100539.47;5051712;28;20204;-74
2022/12/30 10:27:15;;;;;;;4.53;1.30;;;;;;;8.62;73.92;100553.28;5051989;28;20204;-74
2022/12/30 10:29:43;;;;;;;4.27;1.20;;;;;;;8.63;75.18;100601.81;5051572;28;20251;-74
2022/12/30 10:32:19;;;;;;;4.73;1.10;;;;;;;8.76;73.32;100597.38;5051461;28;20213;-74
2022/12/30 10:34:46;;;;;;;3.17;0.93;;;;;;;8.53;71.40;100632.25;5051629;28;20211;-74
2022/12/30 10:37:20;;;;;;;3.47;1.67;;;;;;;8.81;73.52;100594.72;5051255;28;20283;-74
2022/12/30 10:39:48;;;;;;;11.77;2.20;;;;;;;8.94;72.70;100572.91;5051755;28;20211;-74
2022/12/30 10:42:30;;;;;;;3.67;1.53;;;;;;;9.01;72.97;100616.22;5051454;28;20278;-74
2022/12/30 10:45:15;;;;;;;5.10;1.10;;;;;;;9.00;72.79;100614.50;5051651;28;20213;-74
2022/12/30 10:47:52;;;;;;;4.43;1.70;;;;;;;8.92;71.21;100629.34;5051076;28;20239;-75
2022/12/30 10:50:33;;;;;;;5.33;1.03;;;;;;;9.10;72.91;100604.88;5051501;28;20258;-74
2022/12/30 10:53:02;;;;;;;6.03;1.43;;;;;;;8.96;71.41;100618.03;5055091;28;20256;-76
2022/12/30 10:55:31;;;;;;;2.87;1.50;;;;;;;8.92;70.86;100629.34;5055418;28;20230;-73
2022/12/30 10:58:01;;;;;;;3.40;1.23;;;;;;;8.96;71.67;100618.03;5054905;28;20229;-74
2022/12/30 11:00:29;;;;;;;3.17;1.17;;;;;;;9.06;72.05;100596.22;5055467;28;20670;-74
2022/12/30 11:02:59;;;;;;;6.10;1.57;;;;;;;8.95;72.23;100603.25;5048872;28;20206;-74
2022/12/30 11:05:32;;;;;;;2.43;0.87;;;;;;;8.89;70.61;100592.91;5042121;28;20214;-74
2022/12/30 11:08:02;;;;;;;4.00;1.23;;;;;;;9.04;72.99;100577.16;5035515;28;20283;-73
2022/12/30 11:10:29;;;;;;;6.20;1.47;;;;;;;9.14;72.66;100531.91;5035166;28;20259;-73
2022/12/30 11:15:53;;;;;;;7.37;1.10;;;;;;;9.05;72.68;100585.81;5035062;28;20311;-73
2022/12/30 11:18:26;;;;;;;4.77;1.10;;;;;;;9.15;72.70;100507.56;5035154;28;20226;-73
2022/12/30 11:20:55;;;;;;;5.53;1.60;;;;;;;9.20;72.52;100509.28;5043936;28;20666;-73
2022/12/30 11:23:29;;;;;;;4.03;1.10;;;;;;;9.24;71.72;100517.03;5045640;28;20288;-74
2022/12/30 11:25:57;;;;;;;5.47;1.50;;;;;;;9.29;72.62;100489.16;5053657;28;20277;-73
2022/12/30 11:28:27;;;;;;;4.37;1.00;;;;;;;9.34;72.17;100481.31;5054848;28;20229;-73
2022/12/30 11:30:59;;;;;;;3.10;1.20;;;;;;;9.14;69.96;100520.63;5054439;28;20278;-73
2022/12/30 11:33:29;;;;;;;3.03;1.20;;;;;;;9.18;70.69;100524.03;5035654;22;20304;-79
2022/12/30 11:36:13;;;;;;;3.17;1.20;;;;;;;9.02;70.79;100520.75;4984483;28;20718;-79
2022/12/30 11:38:42;;;;;;;1.83;1.10;;;;;;;8.99;71.14;100507.78;4977250;28;20232;-78
2022/12/30 11:41:27;;;;;;;2.97;1.53;;;;;;;9.02;71.23;100487.78;4976824;28;20611;-79
2022/12/30 11:44:14;;;;;;;3.70;1.07;;;;;;;9.11;72.62;100468.56;4977425;28;20238;-79
2022/12/30 11:46:44;;;;;;;2.33;1.03;;;;;;;8.96;71.25;100464.41;4977126;28;20226;-78
2022/12/30 11:49:22;;;;;;;2.20;1.00;;;;;;;9.15;72.30;100434.63;4977004;28;20239;-80
2022/12/30 11:51:51;;;;;;;3.33;1.47;;;;;;;9.26;71.97;100424.09;4976614;28;20216;-79
2022/12/30 11:54:22;;;;;;;3.07;1.10;;;;;;;9.27;70.79;100437.97;4977908;28;20245;-78
2022/12/30 11:56:53;;;;;;;4.63;1.10;;;;;;;9.15;69.63;100468.50;4978522;28;20294;-78
2022/12/30 11:59:23;;;;;;;3.53;1.60;;;;;;;9.35;70.58;100462.16;4978369;28;20204;-78
2022/12/30 12:01:52;;;;;;;1.67;1.20;;;;;;;9.46;71.18;100462.03;4978355;28;20266;-79
2022/12/30 12:04:35;;;;;;;3.30;1.00;;;;;;;9.44;71.28;100462.06;4975976;28;20671;-78
2022/12/30 12:07:02;;;;;;;3.53;1.20;;;;;;;9.44;70.31;100436.00;4977467;28;20219;-78
2022/12/30 12:09:35;;;;;;;2.40;0.93;;;;;;;9.53;70.71;100448.91;4978513;28;20219;-79
2022/12/30 12:12:06;;;;;;;2.33;0.97;;;;;;;9.63;70.35;100434.00;4977200;28;20263;-78
2022/12/30 12:14:39;;;;;;;1.57;1.00;;;;;;;9.61;69.76;100453.97;4977898;28;20255;-78
2022/12/30 12:17:18;;;;;;;2.90;1.03;;;;;;;9.45;68.74;100473.31;4978030;28;20209;-78
2022/12/30 12:19:50;;;;;;;2.60;1.40;;;;;;;9.58;70.31;100468.81;4975013;28;20271;-77
2022/12/30 12:22:22;;;;;;;2.17;1.10;;;;;;;9.71;70.28;100413.88;4977408;28;20224;-78
2022/12/30 12:24:55;;;;;;;2.03;0.93;;;;;;;9.70;69.36;100419.13;4976929;28;20211;-77
2022/12/30 12:27:21;;;;;;;2.53;1.10;;;;;;;9.70;69.86;100404.31;4978021;28;20204;-79
2022/12/30 12:29:48;;;;;;;3.10;1.23;;;;;;;9.69;69.90;100414.78;4977565;28;20240;-79
2022/12/30 12:32:41;;;;;;;3.73;1.30;;;;;;;9.77;70.07;100389.44;4977447;28;20228;-79